Time;durP1;ratioP1;P1;durP2;ratioP2;P2;SDS_P1;SDS_P2;PMS_P1;PMS_P2;Temp;Humidity;BMP_temperature;BMP_pressure;BME280_temperature;BME280_humidity;BME280_pressure;Samples;Min_cycle;Max_cycle;Signal;HPM_P1;HPM_P2
2022/05/03 00:01:47;;;;;;;3.90;3.50;;;;;;;11.83;65.76;96897.25;4959391;28;20206;-95
2022/05/03 00:04:20;;;;;;;7.13;3.57;;;;;;;11.83;66.99;96938.75;4975517;28;20710;-96
2022/05/03 00:07:10;;;;;;;6.07;4.00;;;;;;;11.46;67.89;96895.69;4976230;28;20288;-94
2022/05/03 00:09:55;;;;;;;7.33;3.87;;;;;;;11.71;68.87;96938.56;4975774;28;20203;-95
2022/05/03 00:12:31;;;;;;;5.00;3.93;;;;;;;11.42;69.21;96903.72;4976362;28;20188;-95
2022/05/03 00:15:00;;;;;;;6.43;3.73;;;;;;;11.53;69.76;96947.25;4975732;28;20234;-95
2022/05/03 00:17:30;;;;;;;5.27;3.93;;;;;;;11.43;69.53;96919.22;4991841;28;20208;-94
2022/05/03 00:19:58;;;;;;;5.43;4.03;;;;;;;11.46;70.07;96938.94;4996234;28;20731;-94
2022/05/03 00:22:26;;;;;;;5.83;3.90;;;;;;;11.09;70.18;96864.78;5006353;28;20205;-95
2022/05/03 00:24:55;;;;;;;8.07;4.50;;;;;;;11.41;70.36;96923.63;4998600;28;20232;-94
2022/05/03 00:27:27;;;;;;;5.80;3.90;;;;;;;11.07;70.24;96853.66;4971853;28;20192;-94
2022/05/03 00:29:58;;;;;;;5.20;4.03;;;;;;;11.51;70.46;96925.75;4981050;28;20306;-93
2022/05/03 00:32:28;;;;;;;5.27;4.77;;;;;;;11.16;70.56;96867.91;5023629;28;20286;-96
2022/05/03 00:34:59;;;;;;;5.43;4.40;;;;;;;11.43;70.56;96908.84;4974450;28;20633;-94
2022/05/03 00:37:28;;;;;;;5.30;4.23;;;;;;;11.17;70.17;96864.44;4975489;28;20198;-95
2022/05/03 00:39:56;;;;;;;4.50;3.63;;;;;;;10.74;70.15;96808.72;4974057;28;20255;-95
2022/05/03 00:42:39;;;;;;;5.00;3.93;;;;;;;11.63;69.99;96922.50;4983630;28;20188;-94
2022/05/03 00:45:43;;;;;;;5.47;4.10;;;;;;;11.71;69.42;96922.97;4964346;28;20231;-96
2022/05/03 00:48:41;;;;;;;6.77;4.33;;;;;;;11.81;69.58;96924.22;4974526;28;20201;-95
2022/05/03 00:51:44;;;;;;;6.77;4.20;;;;;;;11.70;69.67;96929.09;4975259;28;20790;-95
2022/05/03 00:54:50;;;;;;;8.20;4.60;;;;;;;11.50;69.95;96898.16;4974429;28;20203;-96
2022/05/03 00:57:42;;;;;;;5.20;4.00;;;;;;;11.48;70.89;96924.97;4972668;28;20207;-94
2022/05/03 01:00:14;;;;;;;4.83;3.67;;;;;;;11.50;70.65;96900.75;4974442;28;20204;-94
2022/05/03 01:03:00;;;;;;;5.30;4.10;;;;;;;11.49;70.19;96873.97;4974430;28;20201;-94
2022/05/03 01:05:38;;;;;;;11.83;4.77;;;;;;;11.75;69.28;96893.38;4973353;28;20270;-94
2022/05/03 01:08:07;;;;;;;5.37;4.50;;;;;;;11.83;68.57;96891.25;4958663;28;20196;-95
2022/05/03 01:10:39;;;;;;;9.07;4.77;;;;;;;11.58;69.72;96875.25;4989988;28;20196;-94
2022/05/03 01:13:30;;;;;;;5.63;4.27;;;;;;;11.37;70.07;96867.63;4990488;28;20195;-95
2022/05/03 01:16:11;;;;;;;5.20;4.47;;;;;;;11.39;70.19;96891.75;4958250;28;20262;-95
2022/05/03 01:18:50;;;;;;;4.70;4.20;;;;;;;11.48;70.65;96905.16;4989754;28;20196;-96
2022/05/03 01:21:40;;;;;;;5.33;4.50;;;;;;;11.68;70.28;96912.78;4975077;28;20201;-95
2022/05/03 01:24:32;;;;;;;6.67;4.50;;;;;;;11.88;68.89;96899.59;4957654;28;20241;-95
2022/05/03 01:27:37;;;;;;;5.47;3.70;;;;;;;12.08;68.20;96896.75;4999837;28;20207;-95
2022/05/03 01:30:09;;;;;;;5.67;3.93;;;;;;;12.13;68.41;96892.19;4965404;28;20212;-94
2022/05/03 01:32:44;;;;;;;7.07;4.90;;;;;;;11.82;67.84;96848.03;5005536;28;20261;-93
2022/05/03 01:35:14;;;;;;;4.57;4.03;;;;;;;11.32;69.99;96861.03;4974609;28;20201;-95
2022/05/03 01:38:06;;;;;;;4.87;4.07;;;;;;;11.42;70.48;96895.94;4974204;28;20228;-95
2022/05/03 01:40:50;;;;;;;4.97;3.97;;;;;;;11.51;70.36;96892.03;4957975;28;20197;-95
2022/05/03 01:43:40;;;;;;;5.47;4.50;;;;;;;11.29;69.13;96832.69;4974352;28;20292;-95
2022/05/03 01:46:23;;;;;;;5.47;4.07;;;;;;;11.06;70.03;96827.84;4973632;28;20244;-95
2022/05/03 01:52:27;;;;;;;4.87;4.03;;;;;;;11.48;69.64;96892.22;4974803;28;20717;-94
2022/05/03 01:55:01;;;;;;;6.67;4.07;;;;;;;11.58;69.37;96889.03;4973350;28;20204;-96
2022/05/03 01:57:53;;;;;;;5.50;4.17;;;;;;;11.60;69.40;96889.81;4973442;28;20202;-96
2022/05/03 02:00:25;;;;;;;5.37;3.40;;;;;;;11.48;69.67;96867.94;4974608;28;20200;-96
2022/05/03 02:03:22;;;;;;;7.00;4.30;;;;;;;11.66;69.52;96888.66;4973331;28;20193;-96
2022/05/03 02:05:54;;;;;;;5.83;3.87;;;;;;;11.37;69.66;96856.47;4975789;28;20267;-94
2022/05/03 02:08:24;;;;;;;6.87;3.70;;;;;;;10.86;70.29;96808.09;4990365;28;20208;-96
2022/05/03 02:11:23;;;;;;;5.67;4.43;;;;;;;11.37;70.01;96885.78;4973870;28;20207;-94
2022/05/03 02:17:16;;;;;;;5.03;3.50;;;;;;;11.26;70.31;96877.75;4973808;28;20588;-94
2022/05/03 02:20:14;;;;;;;5.60;3.83;;;;;;;11.34;70.77;96893.75;4974687;28;20212;-94
2022/05/03 02:23:00;;;;;;;5.90;3.70;;;;;;;11.34;70.96;96893.75;4964069;28;20211;-94
2022/05/03 02:25:46;;;;;;;5.73;3.70;;;;;;;11.32;71.10;96884.34;4964553;28;20636;-91
2022/05/03 02:28:23;;;;;;;4.60;3.50;;;;;;;11.02;70.63;96845.31;4990122;28;20199;-93
2022/05/03 02:30:52;;;;;;;4.27;3.83;;;;;;;11.22;70.46;96852.91;4958512;28;20191;-95
2022/05/03 02:33:51;;;;;;;5.70;3.63;;;;;;;11.41;70.38;96884.75;4957648;28;20272;-96
2022/05/03 02:36:24;;;;;;;8.53;4.03;;;;;;;11.43;70.55;96880.31;4948050;28;20200;-92
2022/05/03 02:39:06;;;;;;;5.33;4.13;;;;;;;11.05;70.95;96841.69;4983037;28;20216;-94
2022/05/03 02:41:39;;;;;;;5.43;3.97;;;;;;;11.38;70.65;96882.28;4982986;28;20229;-92
2022/05/03 02:44:07;;;;;;;6.43;3.87;;;;;;;10.78;70.66;96778.34;4988462;28;20192;-94
2022/05/03 02:47:01;;;;;;;5.83;3.63;;;;;;;11.41;70.78;96879.56;4978244;28;20228;-95
2022/05/03 02:49:38;;;;;;;4.37;3.80;;;;;;;11.42;70.81;96882.97;4984198;28;20207;-93
2022/05/03 02:52:27;;;;;;;5.73;3.97;;;;;;;11.15;70.16;96835.97;4970889;28;20200;-93
2022/05/03 02:55:36;;;;;;;5.40;4.10;;;;;;;11.44;70.40;96875.94;4986086;28;20201;-93
2022/05/03 02:58:41;;;;;;;7.80;4.90;;;;;;;11.51;70.28;96884.25;5012692;28;20229;-96
2022/05/03 03:01:47;;;;;;;7.10;4.43;;;;;;;11.36;69.43;96865.97;4974984;28;20294;-95
2022/05/03 03:04:27;;;;;;;6.30;4.43;;;;;;;11.43;70.22;96882.06;4990045;28;20594;-95
2022/05/03 03:06:55;;;;;;;5.33;4.33;;;;;;;11.15;69.67;96825.59;4958267;28;20901;-94
2022/05/03 03:09:33;;;;;;;6.83;4.60;;;;;;;11.21;69.36;96817.50;5009802;28;20202;-96
2022/05/03 03:12:05;;;;;;;6.00;5.20;;;;;;;11.52;69.57;96857.41;4960664;28;20258;-96
2022/05/03 03:14:51;;;;;;;6.20;4.30;;;;;;;11.60;69.23;96870.81;4962483;28;20192;-94
2022/05/03 03:17:20;;;;;;;5.27;4.00;;;;;;;11.82;69.16;96890.38;4984868;28;20196;-94
2022/05/03 03:20:07;;;;;;;6.93;4.47;;;;;;;11.79;69.45;96887.09;4998831;28;20196;-92
2022/05/03 03:22:37;;;;;;;6.33;4.73;;;;;;;11.80;68.78;96888.78;5000252;28;20189;-94
2022/05/03 03:25:07;;;;;;;4.73;4.30;;;;;;;11.40;69.75;96851.94;4999392;28;20270;-93
2022/05/03 03:27:36;;;;;;;9.07;4.80;;;;;;;11.47;69.76;96878.41;5000526;28;20216;-93
2022/05/03 03:30:06;;;;;;;6.37;4.13;;;;;;;11.68;69.17;96897.22;5002120;28;20210;-94
2022/05/03 03:32:36;;;;;;;8.90;4.47;;;;;;;11.37;69.64;96831.34;4968256;28;20203;-91
2022/05/03 03:35:05;;;;;;;7.93;5.23;;;;;;;11.75;70.16;96889.03;4983465;28;20200;-93
2022/05/03 03:37:34;;;;;;;8.33;5.67;;;;;;;11.59;69.43;96841.44;4976870;28;20203;-94
2022/05/03 03:40:02;;;;;;;5.53;4.37;;;;;;;11.82;69.70;96884.34;4960883;28;20210;-93
2022/05/03 03:42:30;;;;;;;8.90;5.00;;;;;;;11.45;69.66;96818.00;4992233;28;20281;-91
2022/05/03 03:45:07;;;;;;;8.70;5.13;;;;;;;11.79;69.87;96880.16;4992561;28;20642;-92
2022/05/03 03:47:36;;;;;;;8.00;5.30;;;;;;;11.19;69.02;96777.88;4992377;28;20192;-92
2022/05/03 03:50:05;;;;;;;8.03;4.80;;;;;;;11.74;68.98;96873.56;4996213;28;20200;-93
2022/05/03 03:52:34;;;;;;;6.30;4.70;;;;;;;11.96;69.51;96905.22;4977496;28;20197;-94
2022/05/03 03:55:05;;;;;;;7.90;5.30;;;;;;;11.68;68.49;96859.16;4959877;28;20219;-93
2022/05/03 03:57:36;;;;;;;8.27;5.20;;;;;;;11.56;69.67;96840.78;4991852;28;20632;-91
2022/05/03 04:00:05;;;;;;;9.90;5.40;;;;;;;11.86;69.14;96880.69;4974816;28;20730;-92
2022/05/03 04:02:42;;;;;;;9.60;6.10;;;;;;;12.02;69.27;96923.06;4975508;28;20198;-90
2022/05/03 04:05:20;;;;;;;8.63;5.40;;;;;;;11.66;69.28;96852.34;4991392;28;20199;-91
2022/05/03 04:07:48;;;;;;;9.60;6.77;;;;;;;11.63;69.36;96847.28;5008616;28;20197;-91
2022/05/03 04:10:16;;;;;;;11.93;7.07;;;;;;;11.96;70.68;96898.28;4975098;28;20188;-91
2022/05/03 04:12:43;;;;;;;14.83;6.23;;;;;;;11.94;71.03;96878.50;4990784;28;20206;-89
2022/05/03 04:15:10;;;;;;;11.60;6.13;;;;;;;12.11;70.76;96914.78;4994063;28;20587;-93
2022/05/03 04:17:42;;;;;;;15.73;7.90;;;;;;;12.10;71.39;96907.91;4992840;28;20289;-92
2022/05/03 04:20:15;;;;;;;11.30;6.03;;;;;;;11.98;72.05;96904.22;4991871;28;20208;-91
2022/05/03 04:22:44;;;;;;;11.20;4.73;;;;;;;12.07;71.32;96921.06;4989288;28;20206;-94
2022/05/03 04:25:11;;;;;;;9.17;4.93;;;;;;;11.78;70.59;96868.13;4999254;28;20617;-93
2022/05/03 04:27:39;;;;;;;6.60;4.50;;;;;;;11.65;70.11;96856.69;4960551;28;20220;-94
2022/05/03 04:30:07;;;;;;;11.07;5.30;;;;;;;11.93;71.04;96889.81;4991349;28;20206;-92
2022/05/03 04:32:34;;;;;;;7.67;5.50;;;;;;;11.77;70.16;96870.78;4992494;28;20196;-92
2022/05/03 04:35:03;;;;;;;10.30;5.97;;;;;;;12.16;70.07;96924.00;4974868;28;20265;-94
2022/05/03 04:37:30;;;;;;;10.80;4.60;;;;;;;12.20;69.99;96903.88;4975961;28;20601;-93
2022/05/03 04:39:57;;;;;;;10.73;4.83;;;;;;;11.65;69.65;96809.16;4957937;28;20196;-93
2022/05/03 04:42:25;;;;;;;10.00;5.47;;;;;;;12.33;69.46;96901.47;4975760;28;20197;-93
2022/05/03 04:44:53;;;;;;;13.83;5.90;;;;;;;12.36;69.92;96928.13;4992037;28;20367;-93
2022/05/03 04:47:24;;;;;;;9.77;6.07;;;;;;;12.13;69.90;96866.22;4996612;28;20254;-92
2022/05/03 04:49:53;;;;;;;7.40;5.10;;;;;;;12.36;68.68;96896.97;5026326;28;20309;-94
2022/05/03 04:52:22;;;;;;;9.60;5.73;;;;;;;12.27;68.58;96876.69;4976868;28;20214;-94
2022/05/03 04:54:49;;;;;;;9.30;5.43;;;;;;;12.39;68.63;96878.59;4963075;28;20213;-94
2022/05/03 04:57:17;;;;;;;7.13;5.10;;;;;;;12.07;68.30;96832.81;4979133;28;20218;-93
2022/05/03 04:59:45;;;;;;;8.57;4.90;;;;;;;12.60;67.41;96899.94;5010402;28;20199;-91
2022/05/03 05:02:13;;;;;;;6.87;5.27;;;;;;;12.16;67.38;96858.25;4980520;28;20743;-93
2022/05/03 05:04:47;;;;;;;8.10;5.27;;;;;;;12.25;68.74;96888.91;5009843;28;20297;-94
2022/05/03 05:07:14;;;;;;;7.50;5.57;;;;;;;12.12;70.01;96900.88;4959878;28;20234;-93
2022/05/03 05:10:23;;;;;;;10.87;6.33;;;;;;;12.03;69.41;96886.66;4994838;28;20190;-93
2022/05/03 05:12:30;;;;;;;14.37;6.80;;;;;;;12.48;69.06;96927.44;5031178;28;20254;-93
2022/05/03 05:14:58;;;;;;;9.60;6.80;;;;;;;12.22;68.62;96863.94;5001308;28;20201;-94
2022/05/03 05:17:25;;;;;;;16.33;6.23;;;;;;;12.27;67.59;96874.09;4972232;28;20208;-92
2022/05/03 05:19:52;;;;;;;11.00;5.60;;;;;;;12.72;67.18;96928.69;5003870;28;20260;-93
2022/05/03 05:22:20;;;;;;;8.17;5.50;;;;;;;12.72;66.73;96922.63;4988788;28;20204;-92
2022/05/03 05:24:47;;;;;;;9.53;6.03;;;;;;;12.77;67.07;96924.06;4987934;28;20215;-92
2022/05/03 05:27:14;;;;;;;8.43;5.47;;;;;;;12.69;65.46;96918.47;5024718;28;20240;-93
2022/05/03 05:29:42;;;;;;;11.03;4.83;;;;;;;12.95;65.53;96943.81;5013560;28;20187;-91
2022/05/03 05:32:09;;;;;;;9.67;5.80;;;;;;;12.80;64.10;96874.50;5023202;28;20213;-92
2022/05/03 05:34:37;;;;;;;10.93;5.67;;;;;;;13.01;63.75;96924.44;4992113;28;20207;-92
2022/05/03 05:37:05;;;;;;;10.43;4.70;;;;;;;13.05;62.61;96921.59;4977728;28;20194;-94
2022/05/03 05:39:42;;;;;;;9.87;5.10;;;;;;;13.35;61.48;96942.41;5014237;28;20216;-93
2022/05/03 05:42:11;;;;;;;12.63;4.13;;;;;;;12.77;60.27;96861.72;4993825;28;20266;-93
2022/05/03 05:44:40;;;;;;;11.43;3.57;;;;;;;13.35;59.09;96952.81;4995301;28;20190;-93
2022/05/03 05:47:09;;;;;;;7.97;4.33;;;;;;;12.97;59.13;96892.59;4979435;28;20236;-92
2022/05/03 05:49:36;;;;;;;10.10;4.53;;;;;;;13.45;59.98;96953.09;4982883;28;20210;-92
2022/05/03 05:54:50;;;;;;;9.67;4.00;;;;;;;13.25;58.62;96941.25;4996952;28;20194;-93
2022/05/03 05:57:17;;;;;;;10.03;3.80;;;;;;;12.98;59.64;96894.25;5002333;28;20585;-92
2022/05/03 05:59:45;;;;;;;11.97;4.53;;;;;;;13.19;59.88;96933.78;4967254;28;20192;-92
2022/05/03 06:02:14;;;;;;;9.40;4.50;;;;;;;13.05;60.46;96919.00;4978327;28;20199;-92
2022/05/03 06:04:43;;;;;;;7.60;4.00;;;;;;;12.93;58.88;96906.69;4996505;28;20640;-91
2022/05/03 06:07:20;;;;;;;8.13;4.17;;;;;;;13.29;58.90;96962.72;4978697;28;20237;-92
2022/05/03 06:09:48;;;;;;;7.33;3.73;;;;;;;13.31;59.62;96971.28;4993992;28;20277;-93
2022/05/03 06:12:16;;;;;;;8.03;4.10;;;;;;;13.01;59.69;96927.03;4991776;28;20206;-93
2022/05/03 06:14:47;;;;;;;11.57;4.20;;;;;;;13.12;60.28;96955.06;4978768;28;20209;-92
2022/05/03 06:17:14;;;;;;;9.13;4.03;;;;;;;12.65;59.94;96869.34;4985164;28;20200;-94
2022/05/03 06:19:45;;;;;;;7.77;4.60;;;;;;;13.19;59.21;96956.38;5019021;28;20536;-91
2022/05/03 06:22:14;;;;;;;11.77;4.27;;;;;;;12.94;58.98;96929.13;4981317;28;20201;-93
2022/05/03 06:24:45;;;;;;;6.70;4.13;;;;;;;12.87;58.87;96950.38;5004096;28;20202;-93
2022/05/03 06:27:15;;;;;;;6.93;3.47;;;;;;;12.92;58.22;96984.75;4987108;28;20224;-93
2022/05/03 06:29:42;;;;;;;4.47;2.67;;;;;;;12.32;58.69;96915.38;4993403;28;20201;-93
2022/05/03 06:32:10;;;;;;;5.97;2.63;;;;;;;12.46;59.26;96959.63;4979601;28;20699;-94
2022/05/03 06:34:39;;;;;;;5.23;2.90;;;;;;;12.25;59.42;96930.44;4960799;28;20586;-93
2022/05/03 06:37:08;;;;;;;6.70;2.60;;;;;;;12.18;61.48;96949.88;4975207;28;20613;-93
2022/05/03 06:39:37;;;;;;;4.00;2.93;;;;;;;12.34;61.45;96979.31;4977337;28;20195;-92
2022/05/03 06:42:05;;;;;;;7.50;3.33;;;;;;;12.07;62.49;96963.44;4993035;28;20216;-93
2022/05/03 06:44:33;;;;;;;5.93;3.40;;;;;;;11.80;62.42;96943.28;4981751;28;20207;-93
2022/05/03 06:47:01;;;;;;;6.10;2.93;;;;;;;12.01;62.31;96968.94;4983803;28;20224;-92
2022/05/03 06:49:30;;;;;;;3.93;2.80;;;;;;;11.77;63.91;96972.81;5008369;28;20206;-92
2022/05/03 06:52:02;;;;;;;5.63;2.60;;;;;;;11.83;64.39;96967.28;5038755;28;20315;-93
2022/05/03 06:54:38;;;;;;;3.47;3.17;;;;;;;11.96;65.48;96990.84;5015756;28;20222;-92
2022/05/03 06:57:07;;;;;;;6.20;3.60;;;;;;;11.99;65.54;97014.88;4984678;28;20196;-92
2022/05/03 06:59:50;;;;;;;6.87;3.67;;;;;;;11.74;65.32;96990.28;4981744;28;20197;-93
2022/05/03 07:02:19;;;;;;;6.37;3.47;;;;;;;11.69;65.77;96993.13;4970906;28;20651;-91
2022/05/03 07:05:01;;;;;;;5.77;3.73;;;;;;;11.24;67.74;96948.72;4996668;28;20642;-92
2022/05/03 07:07:30;;;;;;;7.50;3.80;;;;;;;11.61;70.06;96989.19;5000119;28;20269;-91
2022/05/03 07:10:01;;;;;;;6.83;3.80;;;;;;;11.34;69.54;96932.63;4965254;28;20273;-94
2022/05/03 07:12:32;;;;;;;4.57;4.10;;;;;;;11.67;68.86;96987.16;4999391;28;20211;-92
2022/05/03 07:15:04;;;;;;;6.40;3.73;;;;;;;11.66;70.55;96993.28;4982851;28;20215;-94
2022/05/03 07:23:08;;;;;;;3.80;3.27;;;;;;;11.43;71.72;96970.22;4978746;28;20208;-94
2022/05/03 07:25:35;;;;;;;4.37;3.60;;;;;;;11.36;72.81;96974.88;4995697;28;20268;-92
2022/05/03 07:28:06;;;;;;;3.80;3.40;;;;;;;11.54;72.41;97014.59;4963953;28;20239;-93
2022/05/03 07:30:34;;;;;;;5.33;3.87;;;;;;;11.12;nan;96960.53;4978490;28;20202;-94
2022/05/03 07:33:11;;;;;;;5.97;4.10;;;;;;;11.13;72.96;96945.81;4996690;28;20206;-93
2022/05/03 07:35:38;;;;;;;5.43;3.80;;;;;;;11.26;72.46;97001.31;4994999;28;20237;-94
2022/05/03 07:38:05;;;;;;;5.73;4.20;;;;;;;11.15;73.90;96998.41;4994955;28;20207;-95
2022/05/03 07:40:33;;;;;;;6.07;3.80;;;;;;;11.16;73.16;96981.94;4962284;28;20275;-93
2022/05/03 07:43:14;;;;;;;6.23;3.37;;;;;;;10.95;73.86;96926.84;4962978;28;20196;-93
2022/05/03 07:45:42;;;;;;;3.93;3.20;;;;;;;11.66;74.26;97008.84;4994646;28;20202;-94
2022/05/03 07:48:10;;;;;;;4.23;3.17;;;;;;;11.65;73.94;96978.59;5008448;28;20242;-94
2022/05/03 07:50:37;;;;;;;3.60;3.30;;;;;;;11.52;73.43;96948.19;5001414;28;20244;-95
2022/05/03 07:53:06;;;;;;;4.23;3.30;;;;;;;11.62;72.38;96993.47;4966745;28;20677;-93
2022/05/03 07:55:35;;;;;;;3.77;3.47;;;;;;;11.94;72.15;97010.84;4982903;28;20193;-93
2022/05/03 07:58:05;;;;;;;3.33;3.03;;;;;;;11.96;71.62;97025.44;4963289;28;20281;-92
2022/05/03 08:00:32;;;;;;;14.63;8.93;;;;;;;11.99;70.75;97008.88;4974374;28;20196;-92
2022/05/03 08:03:00;;;;;;;6.53;4.60;;;;;;;12.12;71.24;97018.53;5028059;28;20191;-94
2022/05/03 08:05:29;;;;;;;5.40;4.23;;;;;;;12.15;71.92;96997.63;4976704;28;20252;-92
2022/05/03 08:08:18;;;;;;;4.73;4.00;;;;;;;11.96;70.19;96957.13;4989008;28;20249;-93
2022/05/03 08:10:47;;;;;;;4.17;3.50;;;;;;;11.53;69.87;96929.09;5013283;28;20218;-93
2022/05/03 08:13:15;;;;;;;5.57;3.97;;;;;;;12.13;70.92;97024.56;5009600;28;20601;-93
2022/05/03 08:15:43;;;;;;;4.50;3.50;;;;;;;11.72;70.66;96950.63;4993785;28;20196;-92
2022/05/03 08:18:10;;;;;;;3.90;3.33;;;;;;;12.34;69.77;97033.00;5009103;28;20204;-92
2022/05/03 08:20:39;;;;;;;3.80;3.40;;;;;;;12.15;70.26;96950.03;4993911;28;20209;-93
2022/05/03 08:23:07;;;;;;;19.43;7.33;;;;;;;12.27;68.00;96959.78;4997612;28;20298;-94
2022/05/03 08:25:37;;;;;;;4.83;3.67;;;;;;;12.05;69.47;96948.84;4969173;28;20236;-94
2022/05/03 08:28:05;;;;;;;3.40;3.10;;;;;;;12.10;69.03;96942.50;4977380;28;20810;-94
2022/05/03 08:30:32;;;;;;;4.30;3.27;;;;;;;12.51;68.27;96968.00;4960989;28;20231;-94
2022/05/03 08:33:00;;;;;;;5.07;3.43;;;;;;;12.59;68.36;96958.84;4960645;28;20656;-94
2022/05/03 08:35:35;;;;;;;3.33;2.63;;;;;;;12.71;67.71;96981.59;4993362;28;20297;-94
2022/05/03 08:43:40;;;;;;;3.93;2.90;;;;;;;13.03;66.22;96977.16;4965387;28;20202;-95
2022/05/03 08:46:09;;;;;;;6.87;3.43;;;;;;;12.96;67.02;96926.47;4978132;28;20237;-95
2022/05/03 08:48:40;;;;;;;5.23;3.20;;;;;;;13.32;67.17;96975.53;4993507;28;20384;-94
2022/05/03 08:51:13;;;;;;;3.17;2.90;;;;;;;13.75;63.95;96993.78;5002729;28;20225;-94
2022/05/03 08:53:40;;;;;;;5.77;2.57;;;;;;;13.68;64.00;97030.66;5001366;28;20592;-94
2022/05/03 08:56:10;;;;;;;4.17;3.00;;;;;;;13.53;62.98;96946.53;4981703;28;20227;-95
2022/05/03 08:58:42;;;;;;;6.23;3.60;;;;;;;13.87;62.95;96981.78;4977585;28;20198;-95
2022/05/03 09:01:14;;;;;;;7.47;4.30;;;;;;;13.87;62.50;97013.03;4976696;28;20195;-94
2022/05/03 09:03:42;;;;;;;4.00;2.60;;;;;;;13.40;62.78;96947.31;4977616;28;20344;-93
2022/05/03 09:06:11;;;;;;;11.30;4.00;;;;;;;13.88;63.28;97014.72;4978170;28;20199;-93
2022/05/03 09:08:39;;;;;;;11.60;4.17;;;;;;;13.74;62.26;97009.50;4986583;28;20215;-93
2022/05/03 09:11:17;;;;;;;4.27;3.60;;;;;;;13.26;63.14;96983.69;5008857;28;20187;-94
2022/05/03 09:13:46;;;;;;;6.40;4.63;;;;;;;13.49;62.67;97022.25;4984254;28;20714;-92
2022/05/03 09:16:17;;;;;;;27.20;12.40;;;;;;;13.04;65.07;96950.28;5010347;28;20343;-94
2022/05/03 09:18:59;;;;;;;7.03;4.97;;;;;;;13.56;66.55;97028.78;4978069;28;20581;-92
2022/05/03 09:24:17;;;;;;;5.77;3.80;;;;;;;13.09;68.02;96976.84;4992070;28;20221;-92
2022/05/03 09:26:45;;;;;;;5.47;3.50;;;;;;;13.08;66.73;97009.81;4960825;28;20606;-95
2022/05/03 09:29:26;;;;;;;4.17;3.47;;;;;;;12.88;66.76;96989.25;4975612;28;20197;-94
2022/05/03 09:31:54;;;;;;;9.73;6.13;;;;;;;12.33;67.10;96954.25;4992037;28;20290;-94
2022/05/03 09:34:41;;;;;;;6.27;3.37;;;;;;;12.65;68.37;97028.66;4991473;28;20296;-94
2022/05/03 09:37:15;;;;;;;5.93;3.60;;;;;;;12.37;70.10;97007.69;4992251;28;20214;-90
2022/05/03 09:39:48;;;;;;;6.47;4.20;;;;;;;12.37;71.04;97018.06;4994270;28;20194;-94
2022/05/03 09:42:20;;;;;;;6.83;4.10;;;;;;;12.40;70.56;96981.56;4993154;28;20283;-95
2022/05/03 09:44:58;;;;;;;4.57;2.93;;;;;;;12.43;70.26;96981.38;4978487;28;20283;-95
2022/05/03 09:47:46;;;;;;;4.33;3.87;;;;;;;12.76;70.92;97010.72;5008209;28;20306;-95
2022/05/03 09:50:38;;;;;;;3.63;3.10;;;;;;;12.80;69.04;97032.19;4975038;28;20201;-96
2022/05/03 09:53:19;;;;;;;4.13;3.33;;;;;;;12.10;69.04;96942.50;4979544;28;20212;-94
2022/05/03 09:56:12;;;;;;;3.67;3.00;;;;;;;12.57;69.12;97002.25;4963058;28;20223;-93
2022/05/03 09:59:26;;;;;;;5.77;4.03;;;;;;;12.74;69.80;96980.56;4984380;28;20274;-94
2022/05/03 10:01:57;;;;;;;4.43;3.17;;;;;;;12.59;68.34;96961.44;4978263;28;20300;-92
2022/05/03 10:04:27;;;;;;;4.80;3.03;;;;;;;12.88;68.66;97030.03;4992890;28;20206;-94
2022/05/03 10:07:08;;;;;;;5.47;3.50;;;;;;;12.74;69.42;97024.72;4976006;28;20228;-94
2022/05/03 10:09:35;;;;;;;5.27;3.63;;;;;;;12.28;71.26;96933.72;4959458;28;20205;-94
2022/05/03 10:12:04;;;;;;;3.57;3.20;;;;;;;12.40;70.65;96945.22;4975345;28;20204;-93
2022/05/03 10:14:33;;;;;;;3.97;3.23;;;;;;;12.75;71.06;97014.28;4976575;28;20210;-96
2022/05/03 10:20:40;;;;;;;7.33;4.47;;;;;;;12.62;70.10;97018.44;4980713;28;20233;-92
2022/05/03 10:23:25;;;;;;;5.63;4.37;;;;;;;12.26;71.32;96973.69;5006194;28;20196;-96
2022/05/03 10:26:08;;;;;;;11.27;9.33;;;;;;;12.42;72.77;96984.06;4981347;28;20332;-93
2022/05/03 10:29:03;;;;;;;5.73;4.97;;;;;;;12.64;72.17;97015.75;5012142;28;20230;-94
2022/05/03 10:31:31;;;;;;;7.77;5.93;;;;;;;12.05;72.63;96900.38;4992570;28;20704;-93
2022/05/03 10:34:02;;;;;;;9.17;6.40;;;;;;;12.50;72.13;96958.53;4979181;28;20209;-95
2022/05/03 10:36:30;;;;;;;14.33;7.50;;;;;;;12.84;72.62;97021.53;5013282;28;20207;-94
2022/05/03 10:39:23;;;;;;;10.57;7.27;;;;;;;12.88;72.78;97017.84;4963808;28;20217;-95
2022/05/03 10:41:56;;;;;;;7.47;5.97;;;;;;;12.40;72.60;96936.56;4979746;28;20217;-95
2022/05/03 10:44:44;;;;;;;6.20;5.10;;;;;;;12.89;71.54;97052.47;5013617;28;20202;-94
2022/05/03 10:47:17;;;;;;;7.60;6.00;;;;;;;12.26;74.29;97047.19;4980517;28;20308;-94
2022/05/03 10:50:17;;;;;;;6.50;5.53;;;;;;;11.94;77.03;97044.59;4980247;28;20558;-95
2022/05/03 10:52:53;;;;;;;3.30;3.00;;;;;;;11.62;71.57;97051.38;4976875;28;20205;-93
2022/05/03 10:55:23;;;;;;;3.00;2.70;;;;;;;11.50;71.46;97053.75;4988597;28;20208;-92
2022/05/03 10:58:25;;;;;;;6.90;4.83;;;;;;;11.66;76.31;97055.53;5012127;28;20262;-93
2022/05/03 11:01:20;;;;;;;6.03;3.33;;;;;;;11.48;77.11;97024.47;4977728;28;20688;-93
2022/05/03 11:03:58;;;;;;;5.40;4.20;;;;;;;11.89;77.45;97047.41;4994526;28;20297;-94
2022/05/03 11:06:28;;;;;;;6.40;4.00;;;;;;;11.98;77.07;97051.31;4990528;28;20207;-94
2022/05/03 11:11:49;;;;;;;5.63;5.07;;;;;;;12.30;76.69;97050.50;4978812;28;20644;-93
2022/05/03 11:14:18;;;;;;;8.37;5.50;;;;;;;12.37;76.16;97043.19;5009791;28;20192;-92
2022/05/03 11:16:50;;;;;;;9.00;5.87;;;;;;;12.12;76.22;96996.91;4977927;28;20286;-93
2022/05/03 11:22:32;;;;;;;6.37;5.27;;;;;;;12.48;76.39;97046.06;5070000;23;20290;-85
2022/05/03 11:25:08;;;;;;;6.90;5.50;;;;;;;12.71;75.38;97043.94;4955173;28;20193;-84
2022/05/03 11:27:37;;;;;;;7.73;5.10;;;;;;;12.73;74.32;97034.31;4960848;28;20225;-82
2022/05/03 11:30:13;;;;;;;8.87;6.93;;;;;;;12.89;73.78;97021.28;4960029;28;20195;-82
2022/05/03 11:32:42;;;;;;;6.17;5.23;;;;;;;13.11;74.43;97044.41;4955962;28;20260;-86
2022/05/03 11:35:20;;;;;;;4.20;3.80;;;;;;;13.05;72.44;97023.00;4955228;28;20213;-84
2022/05/03 11:37:57;;;;;;;4.10;3.67;;;;;;;13.29;71.78;97038.16;4954393;28;20199;-84
2022/05/03 11:40:28;;;;;;;4.33;3.50;;;;;;;13.19;72.78;97034.41;4954350;28;20192;-95
2022/05/03 11:42:57;;;;;;;3.60;3.07;;;;;;;13.28;72.23;97041.66;4958505;28;20218;-88
2022/05/03 11:45:39;;;;;;;5.57;3.87;;;;;;;12.95;72.53;97011.41;4958507;28;20239;-83
2022/05/03 11:48:08;;;;;;;5.20;3.40;;;;;;;12.91;72.91;97030.69;4959364;28;20660;-84
2022/05/03 11:56:09;;;;;;;3.40;3.10;;;;;;;12.55;72.05;97005.88;4953659;28;20549;-85
2022/05/03 11:58:40;;;;;;;5.63;4.10;;;;;;;12.26;73.01;97018.63;4955091;28;20194;-84
2022/05/03 12:01:12;;;;;;;4.70;3.87;;;;;;;12.44;72.04;97048.00;4956693;28;20205;-84
2022/05/03 12:03:48;;;;;;;8.13;5.20;;;;;;;12.48;73.34;97046.94;4954643;28;20196;-84
2022/05/03 12:06:16;;;;;;;5.73;4.60;;;;;;;11.63;75.74;97018.47;4955106;28;20199;-83
2022/05/03 12:08:46;;;;;;;7.23;5.37;;;;;;;11.43;77.76;97048.00;4953353;28;20219;-84
2022/05/03 12:11:24;;;;;;;6.07;4.83;;;;;;;11.21;79.75;97024.06;4953391;28;20211;-87
2022/05/03 12:13:53;;;;;;;5.83;4.57;;;;;;;11.04;81.63;97039.56;4952500;28;20224;-84
2022/05/03 12:16:25;;;;;;;7.47;5.43;;;;;;;11.54;81.98;97044.91;4952630;28;20281;-86
2022/05/03 12:18:55;;;;;;;8.03;6.23;;;;;;;11.54;81.74;97031.94;4945106;28;20195;-85
2022/05/03 12:21:30;;;;;;;6.50;4.90;;;;;;;11.33;81.94;97000.94;4953558;28;20255;-83
2022/05/03 12:24:00;;;;;;;4.57;4.10;;;;;;;11.60;80.38;97034.22;4953815;28;20199;-83
2022/05/03 12:26:39;;;;;;;6.73;5.07;;;;;;;11.77;80.90;97039.41;4952107;28;20196;-83
2022/05/03 12:29:07;;;;;;;4.83;3.70;;;;;;;11.78;79.00;97041.09;4953342;28;20225;-83
2022/05/03 12:31:40;;;;;;;5.30;4.00;;;;;;;11.88;79.32;97048.34;4954194;28;20201;-83
2022/05/03 12:34:11;;;;;;;5.23;4.37;;;;;;;11.99;80.15;97045.22;4953167;28;20194;-82
2022/05/03 12:36:43;;;;;;;4.83;3.20;;;;;;;11.97;77.53;97021.09;4956140;28;20722;-84
2022/05/03 12:39:10;;;;;;;3.70;3.03;;;;;;;12.00;78.37;97046.88;4969125;28;20203;-82
2022/05/03 12:42:01;;;;;;;3.10;2.77;;;;;;;12.11;78.76;97035.03;4969312;28;20198;-83
2022/05/03 12:44:30;;;;;;;4.03;3.30;;;;;;;12.14;77.97;97031.41;4954115;28;20684;-82